createdAt,value
2018-09-22T00:00:43.327Z,7.20
2018-09-22T00:03:15.622Z,8.50
2018-09-22T00:05:47.953Z,9.70
2018-09-22T00:08:19.980Z,9.10
2018-09-22T00:10:53.012Z,9.80
2018-09-22T00:13:25.342Z,8.50
2018-09-22T00:15:57.507Z,8.40
2018-09-22T00:18:29.971Z,7.90
2018-09-22T00:21:02.217Z,8.60
2018-09-22T00:23:35.015Z,8.40
2018-09-22T00:26:07.181Z,9.00
2018-09-22T00:28:39.587Z,8.40
2018-09-22T00:31:11.838Z,9.30
2018-09-22T00:33:43.917Z,8.90
2018-09-22T00:36:16.507Z,10.20
2018-09-22T00:38:48.854Z,10.30
2018-09-22T00:41:21.254Z,10.10
2018-09-22T00:43:53.377Z,11.30
2018-09-22T00:46:25.868Z,11.50
2018-09-22T00:48:58.120Z,11.20
2018-09-22T00:51:30.402Z,11.90
2018-09-22T00:54:02.269Z,11.60
2018-09-22T00:56:34.534Z,11.10
2018-09-22T00:59:07.036Z,11.10
2018-09-22T01:01:39.409Z,11.50
2018-09-22T01:04:11.812Z,11.00
2018-09-22T01:06:43.615Z,11.00
2018-09-22T01:09:15.796Z,12.00
2018-09-22T01:11:48.072Z,12.20
2018-09-22T01:14:20.500Z,11.80
2018-09-22T01:16:52.888Z,11.90
2018-09-22T01:19:25.347Z,11.80
2018-09-22T01:21:58.085Z,11.10
2018-09-22T01:24:30.377Z,13.40
2018-09-22T01:27:02.607Z,13.60
2018-09-22T01:29:34.946Z,12.90
2018-09-22T01:32:07.390Z,13.10
2018-09-22T01:34:39.459Z,13.30
2018-09-22T01:37:11.958Z,14.40
2018-09-22T01:39:44.336Z,14.60
2018-09-22T01:42:16.735Z,13.40
2018-09-22T01:44:48.874Z,14.50
2018-09-22T01:47:20.972Z,14.40
2018-09-22T01:49:53.329Z,14.50
2018-09-22T01:52:25.743Z,14.60
2018-09-22T01:54:58.265Z,15.00
2018-09-22T01:57:30.442Z,15.00
2018-09-22T02:00:02.634Z,15.50
2018-09-22T02:02:34.984Z,15.10
2018-09-22T02:05:06.791Z,15.30
2018-09-22T02:07:38.568Z,15.50
2018-09-22T02:10:16.495Z,15.80
2018-09-22T02:12:49.042Z,16.00
2018-09-22T02:15:21.403Z,16.00
2018-09-22T02:17:53.646Z,16.70
2018-09-22T02:20:25.926Z,16.70
2018-09-22T02:22:58.097Z,16.80
2018-09-22T02:25:30.218Z,16.90
2018-09-22T02:28:01.936Z,17.10
2018-09-22T02:30:33.598Z,17.70
2018-09-22T02:33:05.957Z,18.50
2018-09-22T02:35:38.030Z,18.60
2018-09-22T02:38:10.526Z,18.40
2018-09-22T02:40:43.042Z,18.80
2018-09-22T02:43:15.141Z,19.50
2018-09-22T02:45:46.938Z,19.90
2018-09-22T02:48:18.699Z,20.40
2018-09-22T02:50:50.454Z,19.80
2018-09-22T02:53:22.715Z,20.00
2018-09-22T02:55:54.823Z,20.30
2018-09-22T02:58:27.885Z,20.80
2018-09-22T03:01:00.429Z,20.50
2018-09-22T03:03:33.169Z,20.30
2018-09-22T03:06:05.313Z,20.70
2018-09-22T03:08:38.185Z,21.30
2018-09-22T03:11:10.113Z,20.80
2018-09-22T03:13:42.646Z,20.50
2018-09-22T03:16:14.375Z,21.00
2018-09-22T03:18:46.962Z,21.10
2018-09-22T03:21:19.320Z,21.60
2018-09-22T03:23:52.334Z,21.40
2018-09-22T03:26:24.094Z,21.60
2018-09-22T03:28:56.387Z,22.10
2018-09-22T03:31:28.868Z,22.30
2018-09-22T03:34:01.283Z,22.10
2018-09-22T03:36:33.437Z,22.40
2018-09-22T03:39:06.567Z,22.40
2018-09-22T03:41:38.849Z,22.60
2018-09-22T03:44:11.619Z,23.00
2018-09-22T03:46:44.099Z,22.90
2018-09-22T03:49:16.335Z,23.40
2018-09-22T03:51:48.474Z,23.40
2018-09-22T03:54:21.099Z,23.80
2018-09-22T03:56:52.837Z,24.60
2018-09-22T03:59:24.745Z,24.30
2018-09-22T04:01:56.701Z,23.80
2018-09-22T04:04:29.259Z,23.90
2018-09-22T04:07:01.442Z,24.30
2018-09-22T04:09:33.949Z,25.00
2018-09-22T04:12:06.494Z,25.20
2018-09-22T04:14:38.845Z,25.10
2018-09-22T04:17:10.964Z,25.90
2018-09-22T04:19:42.731Z,25.80
2018-09-22T04:22:14.478Z,25.50
2018-09-22T04:24:46.288Z,26.70
2018-09-22T04:27:18.592Z,26.60
2018-09-22T04:29:50.969Z,26.40
2018-09-22T04:32:23.285Z,25.90
2018-09-22T04:34:55.313Z,25.90
2018-09-22T04:37:27.029Z,25.30
2018-09-22T04:40:00.213Z,25.60
2018-09-22T04:42:32.529Z,25.30
2018-09-22T04:45:04.909Z,26.00
2018-09-22T04:47:36.889Z,26.40
2018-09-22T04:50:09.071Z,26.40
2018-09-22T04:52:41.497Z,26.30
2018-09-22T04:55:13.866Z,25.40
2018-09-22T04:57:46.267Z,26.50
2018-09-22T05:00:18.615Z,25.70
2018-09-22T05:02:51.009Z,24.80
2018-09-22T05:05:23.120Z,24.50
2018-09-22T05:07:55.496Z,24.20
2018-09-22T05:10:27.903Z,24.50
2018-09-22T05:13:00.104Z,24.00
2018-09-22T05:15:32.269Z,23.60
2018-09-22T05:18:04.599Z,23.40
2018-09-22T05:20:36.985Z,24.10
2018-09-22T05:23:09.144Z,24.00
2018-09-22T05:25:41.337Z,24.90
2018-09-22T05:28:13.453Z,24.40
2018-09-22T05:30:45.810Z,24.40
2018-09-22T05:33:18.479Z,24.90
2018-09-22T05:35:50.995Z,24.00
2018-09-22T05:38:23.401Z,24.40
2018-09-22T05:40:55.702Z,24.70
2018-09-22T05:43:27.861Z,24.40
2018-09-22T05:45:59.977Z,23.70
2018-09-22T05:48:32.068Z,24.70
2018-09-22T05:51:04.973Z,24.70
2018-09-22T05:53:37.345Z,24.60
2018-09-22T05:56:09.354Z,25.40
2018-09-22T05:58:41.716Z,25.40
2018-09-22T06:01:14.040Z,25.10
2018-09-22T06:03:45.897Z,25.30
2018-09-22T06:06:17.857Z,25.60
2018-09-22T06:08:50.177Z,25.80
2018-09-22T06:11:22.319Z,26.00
2018-09-22T06:13:54.401Z,25.40
2018-09-22T06:16:27.219Z,25.90
2018-09-22T06:18:59.257Z,25.90
2018-09-22T06:21:31.593Z,25.60
2018-09-22T06:24:03.990Z,25.90
2018-09-22T06:26:36.227Z,25.90
2018-09-22T06:29:09.012Z,25.90
2018-09-22T06:31:41.598Z,26.40
2018-09-22T06:34:13.982Z,26.40
2018-09-22T06:36:46.350Z,26.70
2018-09-22T06:39:18.485Z,27.40
2018-09-22T06:41:50.782Z,29.30
2018-09-22T06:44:23.123Z,29.10
2018-09-22T06:46:55.297Z,30.80
2018-09-22T06:49:27.467Z,35.80
2018-09-22T06:51:59.791Z,36.40
2018-09-22T06:54:31.761Z,37.50
2018-09-22T06:57:03.894Z,39.60
2018-09-22T06:59:35.942Z,41.00
2018-09-22T07:02:08.171Z,40.90
2018-09-22T07:04:40.741Z,42.60
2018-09-22T07:07:12.952Z,43.30
2018-09-22T07:09:45.131Z,46.70
2018-09-22T07:12:17.325Z,45.90
2018-09-22T07:14:49.885Z,43.10
2018-09-22T07:17:22.773Z,45.50
2018-09-22T07:19:55.116Z,46.80
2018-09-22T07:22:32.049Z,47.70
2018-09-22T07:25:04.369Z,48.90
2018-09-22T07:27:36.361Z,47.00
2018-09-22T07:30:08.816Z,48.60
2018-09-22T07:32:40.930Z,49.70
2018-09-22T07:35:13.789Z,46.60
2018-09-22T07:37:45.875Z,45.10
2018-09-22T07:40:18.606Z,45.70
2018-09-22T07:42:50.889Z,47.40
2018-09-22T07:45:23.643Z,45.80
2018-09-22T07:47:56.116Z,45.70
2018-09-22T07:50:28.349Z,47.20
2018-09-22T07:53:00.613Z,46.10
2018-09-22T07:55:32.914Z,47.40
2018-09-22T07:58:05.307Z,48.20
2018-09-22T08:00:37.650Z,48.80
2018-09-22T08:03:10.882Z,51.30
2018-09-22T08:05:43.205Z,55.20
2018-09-22T08:08:15.468Z,55.90
2018-09-22T08:10:47.661Z,56.10
2018-09-22T08:13:20.006Z,57.40
2018-09-22T08:15:52.352Z,60.40
2018-09-22T08:18:24.761Z,60.20
2018-09-22T08:20:57.255Z,62.60
2018-09-22T08:23:29.512Z,62.50
2018-09-22T08:26:01.712Z,64.80
2018-09-22T08:28:34.061Z,65.60
2018-09-22T08:31:06.419Z,65.70
2018-09-22T08:33:38.411Z,65.80
2018-09-22T08:36:10.865Z,66.50
2018-09-22T08:38:43.461Z,67.40
2018-09-22T08:41:16.018Z,68.50
2018-09-22T08:43:48.211Z,68.20
2018-09-22T08:46:20.345Z,68.60
2018-09-22T08:48:53.005Z,68.20
2018-09-22T08:51:25.082Z,68.70
2018-09-22T08:53:57.885Z,69.20
2018-09-22T08:56:30.050Z,69.20
2018-09-22T08:59:03.349Z,69.70
2018-09-22T09:01:35.714Z,70.00
2018-09-22T09:04:08.178Z,70.80
2018-09-22T09:06:40.455Z,70.50
2018-09-22T09:09:12.814Z,70.90
2018-09-22T09:11:45.302Z,70.80
2018-09-22T09:14:17.733Z,70.80
2018-09-22T09:16:50.203Z,70.60
2018-09-22T09:19:22.598Z,70.30
2018-09-22T09:21:54.793Z,70.50
2018-09-22T09:24:26.987Z,70.90
2018-09-22T09:26:59.184Z,70.60
2018-09-22T09:29:31.532Z,70.10
2018-09-22T09:32:04.061Z,70.90
2018-09-22T09:34:36.034Z,71.20
2018-09-22T09:37:08.124Z,70.90
2018-09-22T09:39:40.260Z,70.90
2018-09-22T09:42:12.855Z,70.80
2018-09-22T09:44:44.599Z,70.80
2018-09-22T09:47:16.661Z,71.20
2018-09-22T09:49:48.837Z,71.10
2018-09-22T09:52:21.383Z,71.70
2018-09-22T09:54:53.582Z,71.80
2018-09-22T09:57:25.957Z,72.40
2018-09-22T09:59:58.286Z,72.40
2018-09-22T10:02:30.450Z,72.50
2018-09-22T10:05:02.653Z,72.00
2018-09-22T10:07:34.806Z,71.60
2018-09-22T10:10:07.325Z,71.80
2018-09-22T10:12:39.555Z,71.80
2018-09-22T10:15:11.731Z,71.70
2018-09-22T10:17:43.960Z,71.60
2018-09-22T10:20:16.648Z,71.50
2018-09-22T10:22:48.934Z,71.70
2018-09-22T10:25:21.296Z,72.40
2018-09-22T10:27:53.539Z,72.90
2018-09-22T10:30:25.778Z,73.60
2018-09-22T10:32:58.142Z,73.90
2018-09-22T10:35:30.664Z,74.60
2018-09-22T10:38:02.811Z,75.20
2018-09-22T10:40:35.221Z,75.30
2018-09-22T10:43:07.547Z,75.40
2018-09-22T10:45:40.025Z,75.40
2018-09-22T10:48:12.343Z,75.30
2018-09-22T10:50:45.390Z,75.30
2018-09-22T10:53:17.650Z,75.30
2018-09-22T10:55:50.197Z,75.80
2018-09-22T10:58:22.304Z,76.10
2018-09-22T11:00:54.836Z,76.90
2018-09-22T11:03:28.323Z,77.30
2018-09-22T11:06:00.424Z,78.10
2018-09-22T11:08:32.940Z,78.70
2018-09-22T11:11:05.128Z,79.30
2018-09-22T11:13:37.305Z,79.90
2018-09-22T11:16:09.707Z,80.00
2018-09-22T11:18:42.237Z,79.90
2018-09-22T11:21:14.407Z,79.80
2018-09-22T11:23:46.764Z,80.40
2018-09-22T11:26:19.228Z,79.70
2018-09-22T11:28:51.656Z,79.40
2018-09-22T11:31:23.852Z,79.30
2018-09-22T11:33:55.950Z,79.20
2018-09-22T11:36:28.521Z,78.70
2018-09-22T11:39:00.877Z,78.10
2018-09-22T11:41:33.066Z,77.80
2018-09-22T11:44:05.419Z,77.30
2018-09-22T11:46:38.321Z,77.10
2018-09-22T11:49:10.397Z,77.00
2018-09-22T11:51:42.853Z,76.90
2018-09-22T11:54:15.353Z,76.60
2018-09-22T11:56:47.074Z,76.70
2018-09-22T11:59:19.409Z,76.70
2018-09-22T12:01:51.671Z,76.60
2018-09-22T12:04:24.192Z,76.70
2018-09-22T12:06:56.369Z,76.40
2018-09-22T12:09:28.290Z,76.60
2018-09-22T12:12:00.527Z,76.10
2018-09-22T12:14:32.913Z,75.80
2018-09-22T12:17:05.061Z,75.10
2018-09-22T12:19:37.391Z,74.80
2018-09-22T12:22:09.806Z,74.50
2018-09-22T12:24:42.780Z,74.40
2018-09-22T12:27:15.178Z,74.00
2018-09-22T12:29:47.276Z,74.40
2018-09-22T12:32:19.421Z,74.60
2018-09-22T12:34:51.615Z,75.00
2018-09-22T12:37:23.992Z,75.10
2018-09-22T12:39:56.154Z,75.60
2018-09-22T12:42:28.575Z,76.10
2018-09-22T12:45:00.661Z,76.40
2018-09-22T12:47:32.964Z,76.20
2018-09-22T12:50:05.410Z,76.30
2018-09-22T12:52:37.713Z,76.40
2018-09-22T12:55:10.075Z,76.70
2018-09-22T12:57:42.286Z,77.00
2018-09-22T13:00:14.632Z,76.90
2018-09-22T13:02:46.836Z,77.10
2018-09-22T13:05:19.441Z,77.40
2018-09-22T13:07:51.659Z,77.60
2018-09-22T13:10:24.409Z,77.60
2018-09-22T13:12:56.584Z,77.80
2018-09-22T13:15:29.143Z,77.60
2018-09-22T13:18:01.339Z,77.30
2018-09-22T13:20:33.772Z,77.10
2018-09-22T13:23:06.011Z,77.00
2018-09-22T13:25:38.524Z,76.80
2018-09-22T13:28:10.669Z,76.40
2018-09-22T13:30:43.238Z,76.40
2018-09-22T13:33:15.357Z,76.20
2018-09-22T13:35:47.921Z,75.80
2018-09-22T13:38:20.321Z,75.40
2018-09-22T13:40:52.889Z,74.90
2018-09-22T13:43:25.455Z,74.90
2018-09-22T13:45:57.482Z,74.30
2018-09-22T13:48:29.821Z,74.00
2018-09-22T13:51:02.116Z,73.40
2018-09-22T13:53:34.125Z,73.50
2018-09-22T13:56:06.377Z,73.20
2018-09-22T13:58:38.456Z,73.60
2018-09-22T14:01:10.972Z,74.00
2018-09-22T14:03:43.061Z,74.80
2018-09-22T14:06:15.174Z,75.60
2018-09-22T14:08:47.331Z,76.40
2018-09-22T14:11:19.641Z,77.10
2018-09-22T14:13:51.512Z,77.80
2018-09-22T14:16:23.604Z,78.20
2018-09-22T14:18:56.186Z,78.70
2018-09-22T14:21:28.588Z,79.10
2018-09-22T14:24:01.359Z,79.70
2018-09-22T14:26:33.497Z,80.00
2018-09-22T14:29:05.715Z,80.10
2018-09-22T14:31:38.241Z,80.40
2018-09-22T14:34:10.990Z,80.50
2018-09-22T14:36:43.211Z,81.40
2018-09-22T14:39:15.999Z,82.30
2018-09-22T14:41:48.035Z,82.30
2018-09-22T14:44:20.239Z,82.60
2018-09-22T14:46:52.438Z,83.00
2018-09-22T14:49:24.753Z,83.20
2018-09-22T14:51:57.547Z,83.80
2018-09-22T14:54:30.120Z,83.80
2018-09-22T14:57:02.494Z,83.50
2018-09-22T14:59:34.674Z,82.40
2018-09-22T15:02:07.335Z,82.40
2018-09-22T15:04:40.056Z,81.60
2018-09-22T15:07:12.676Z,81.10
2018-09-22T15:09:45.037Z,80.00
2018-09-22T15:12:17.533Z,79.50
2018-09-22T15:14:49.908Z,79.00
2018-09-22T15:17:22.289Z,77.70
2018-09-22T15:19:54.565Z,76.70
2018-09-22T15:22:26.782Z,77.10
2018-09-22T15:24:59.540Z,75.70
2018-09-22T15:27:32.056Z,76.20
2018-09-22T15:30:04.336Z,75.00
2018-09-22T15:32:36.753Z,74.60
2018-09-22T15:35:09.362Z,73.80
2018-09-22T15:37:41.689Z,73.10
2018-09-22T15:40:14.678Z,72.60
2018-09-22T15:42:47.278Z,72.30
2018-09-22T15:45:19.602Z,72.40
2018-09-22T15:47:51.930Z,72.30
2018-09-22T15:50:23.716Z,69.20
2018-09-22T15:52:55.854Z,67.80
2018-09-22T15:55:28.042Z,67.30
2018-09-22T15:58:00.405Z,67.50
2018-09-22T16:00:32.447Z,65.90
2018-09-22T16:03:05.215Z,63.90
2018-09-22T16:05:37.814Z,64.20
2018-09-22T16:08:10.155Z,63.60
2018-09-22T16:10:42.761Z,55.80
2018-09-22T16:13:15.126Z,54.30
2018-09-22T16:15:48.711Z,52.90
2018-09-22T16:18:22.558Z,50.40
2018-09-22T16:20:55.001Z,50.40
2018-09-22T16:23:27.260Z,50.30
2018-09-22T16:25:59.669Z,50.40
2018-09-22T16:28:31.879Z,52.60
2018-09-22T16:31:04.112Z,53.80
2018-09-22T16:33:36.495Z,56.40
2018-09-22T16:36:08.633Z,54.70
2018-09-22T16:38:40.998Z,54.40
2018-09-22T16:41:13.183Z,53.60
2018-09-22T16:43:45.336Z,50.40
2018-09-22T16:46:17.716Z,50.30
2018-09-22T16:48:49.937Z,51.90
2018-09-22T16:51:22.306Z,49.30
2018-09-22T16:53:54.603Z,46.90
2018-09-22T16:56:26.602Z,48.30
2018-09-22T16:58:58.752Z,46.30
2018-09-22T17:01:30.869Z,49.10
2018-09-22T17:04:03.174Z,47.40
2018-09-22T17:06:35.403Z,48.40
2018-09-22T17:09:08.832Z,48.00
2018-09-22T17:11:40.972Z,46.20
2018-09-22T17:14:12.826Z,44.70
2018-09-22T17:16:45.626Z,46.50
2018-09-22T17:19:17.907Z,47.30
2018-09-22T17:21:50.232Z,46.10
2018-09-22T17:24:23.077Z,44.40
2018-09-22T17:26:55.221Z,46.00
2018-09-22T17:29:27.571Z,44.40
2018-09-22T17:31:59.692Z,42.80
2018-09-22T17:34:31.826Z,43.10
2018-09-22T17:37:04.973Z,42.90
2018-09-22T17:39:37.950Z,42.90
2018-09-22T17:42:10.753Z,41.40
2018-09-22T17:44:43.023Z,40.00
2018-09-22T17:47:15.166Z,40.10
2018-09-22T17:49:47.711Z,39.70
2018-09-22T17:52:19.971Z,35.40
2018-09-22T17:54:52.449Z,37.20
2018-09-22T17:57:24.699Z,35.40
2018-09-22T17:59:57.178Z,33.00
2018-09-22T18:02:29.411Z,35.90
2018-09-22T18:05:01.772Z,35.50
2018-09-22T18:07:33.932Z,32.80
2018-09-22T18:10:06.526Z,32.00
2018-09-22T18:12:38.893Z,32.70
2018-09-22T18:15:10.989Z,31.00
2018-09-22T18:17:43.450Z,30.90
2018-09-22T18:20:15.798Z,29.50
2018-09-22T18:22:47.869Z,28.70
2018-09-22T18:25:20.373Z,30.40
2018-09-22T18:27:53.276Z,32.00
2018-09-22T18:30:25.590Z,35.50
2018-09-22T18:32:58.015Z,33.40
2018-09-22T18:35:30.098Z,32.70
2018-09-22T18:38:02.272Z,33.10
2018-09-22T18:40:34.650Z,31.60
2018-09-22T18:43:07.273Z,34.30
2018-09-22T18:45:40.249Z,33.70
2018-09-22T18:48:12.917Z,38.70
2018-09-22T18:50:46.322Z,40.90
2018-09-22T18:53:18.742Z,39.40
2018-09-22T18:55:51.303Z,39.00
2018-09-22T18:58:24.540Z,45.90
2018-09-22T19:00:56.932Z,46.40
2018-09-22T19:03:29.264Z,50.50
2018-09-22T19:06:01.422Z,49.60
2018-09-22T19:08:34.024Z,51.50
2018-09-22T19:11:06.151Z,53.20
2018-09-22T19:13:47.280Z,53.50
2018-09-22T19:16:23.116Z,56.30
2018-09-22T19:19:02.570Z,56.20
2018-09-22T19:21:39.126Z,57.80
2018-09-22T19:24:15.056Z,57.50
2018-09-22T19:26:50.687Z,55.20
2018-09-22T19:29:33.266Z,52.20
2018-09-22T19:32:15.290Z,55.30
2018-09-22T19:34:52.945Z,57.10
2018-09-22T19:37:43.456Z,53.60
2018-09-22T19:40:26.081Z,57.60
2018-09-22T19:43:02.687Z,53.50
2018-09-22T19:45:38.810Z,53.60
2018-09-22T19:48:20.845Z,52.70
2018-09-22T19:50:57.440Z,51.30
2018-09-22T19:53:29.819Z,49.10
2018-09-22T19:56:02.081Z,48.80
2018-09-22T19:58:34.591Z,50.90
2018-09-22T20:01:07.018Z,46.90
2018-09-22T20:03:39.829Z,43.00
2018-09-22T20:06:12.437Z,45.60
2018-09-22T20:08:45.199Z,52.10
2018-09-22T20:11:18.065Z,51.40
2018-09-22T20:13:51.264Z,51.40
2018-09-22T20:16:24.250Z,54.20
2018-09-22T20:18:56.562Z,53.10
2018-09-22T20:21:29.170Z,52.70
2018-09-22T20:24:01.394Z,50.70
2018-09-22T20:26:33.649Z,57.90
2018-09-22T20:29:05.973Z,50.70
2018-09-22T20:31:38.492Z,53.40
2018-09-22T20:34:10.857Z,53.70
2018-09-22T20:36:43.332Z,52.00
2018-09-22T20:39:15.712Z,50.00
2018-09-22T20:41:48.146Z,52.10
2018-09-22T20:44:20.489Z,51.60
2018-09-22T20:46:52.724Z,46.60
2018-09-22T20:49:25.258Z,44.00
2018-09-22T20:51:57.441Z,45.50
2018-09-22T20:54:29.832Z,49.60
2018-09-22T20:57:02.171Z,48.20
2018-09-22T20:59:34.539Z,43.70
2018-09-22T21:02:07.573Z,47.80
2018-09-22T21:04:39.923Z,41.90
2018-09-22T21:07:12.469Z,45.40
2018-09-22T21:09:44.897Z,42.50
2018-09-22T21:12:17.258Z,40.50
2018-09-22T21:14:50.170Z,42.90
2018-09-22T21:17:22.393Z,35.90
2018-09-22T21:19:54.733Z,41.60
2018-09-22T21:22:26.930Z,36.90
2018-09-22T21:24:59.155Z,32.00
2018-09-22T21:27:32.001Z,32.40
2018-09-22T21:30:04.363Z,35.20
2018-09-22T21:32:36.570Z,37.30
2018-09-22T21:35:08.707Z,33.20
2018-09-22T21:37:40.830Z,29.90
2018-09-22T21:40:13.348Z,33.00
2018-09-22T21:42:45.767Z,33.90
2018-09-22T21:45:18.110Z,37.90
2018-09-22T21:47:49.949Z,33.20
2018-09-22T21:50:22.281Z,29.90
2018-09-22T21:52:54.661Z,29.80
2018-09-22T21:55:26.938Z,29.60
2018-09-22T21:57:59.299Z,31.70
2018-09-22T22:00:31.563Z,28.80
2018-09-22T22:03:03.613Z,30.20
2018-09-22T22:05:35.987Z,33.90
2018-09-22T22:08:08.347Z,30.50
2018-09-22T22:10:40.635Z,29.70
2018-09-22T22:13:13.274Z,27.10
2018-09-22T22:15:45.458Z,28.00
2018-09-22T22:18:17.662Z,27.80
2018-09-22T22:20:50.010Z,25.10
2018-09-22T22:23:22.635Z,23.70
2018-09-22T22:25:54.775Z,26.50
2018-09-22T22:28:27.554Z,27.20
2018-09-22T22:31:00.179Z,27.50
2018-09-22T22:33:32.394Z,23.80
2018-09-22T22:36:04.561Z,23.60
2018-09-22T22:38:37.150Z,22.30
2018-09-22T22:41:09.251Z,22.10
2018-09-22T22:43:41.427Z,21.90
2018-09-22T22:46:14.660Z,25.10
2018-09-22T22:48:46.756Z,20.10
2018-09-22T22:51:19.089Z,23.90
2018-09-22T22:53:51.492Z,21.20
2018-09-22T22:56:24.673Z,18.30
2018-09-22T22:58:57.046Z,21.60
2018-09-22T23:01:29.759Z,23.10
2018-09-22T23:04:02.180Z,20.40
2018-09-22T23:06:35.905Z,21.70
2018-09-22T23:09:09.464Z,22.10
2018-09-22T23:11:41.894Z,20.80
2018-09-22T23:14:14.513Z,19.20
2018-09-22T23:16:47.263Z,19.10
2018-09-22T23:19:20.177Z,19.20
2018-09-22T23:21:52.348Z,17.30
2018-09-22T23:24:24.904Z,18.30
2018-09-22T23:26:56.861Z,17.20
2018-09-22T23:29:28.794Z,17.80
2018-09-22T23:32:01.446Z,18.40
2018-09-22T23:34:33.628Z,18.00
2018-09-22T23:37:05.964Z,16.70
2018-09-22T23:39:39.161Z,18.40
2018-09-22T23:42:11.437Z,18.40
2018-09-22T23:44:44.872Z,17.90
2018-09-22T23:47:16.781Z,15.20
2018-09-22T23:49:48.728Z,16.10
2018-09-22T23:52:21.268Z,15.00
2018-09-22T23:54:53.751Z,16.20
2018-09-22T23:57:26.511Z,15.70
2018-09-22T23:59:59.306Z,15.60
